sensor_id;sensor_type;location;lat;lon;timestamp;pressure;altitude;pressure_sealevel;temperature;humidity
32452;BME280;45528;52.102;5.242;2023-10-31T00:00:48;99203.0;;;19.03;57.9
32452;BME280;45528;52.102;5.242;2023-10-31T00:02:24;99202.0;;;18.95;57.98
32452;BME280;45528;52.102;5.242;2023-10-31T00:04:00;99207.0;;;18.93;58.3
32452;BME280;45528;52.102;5.242;2023-10-31T00:07:12;99210.0;;;18.95;58.18
32452;BME280;45528;52.102;5.242;2023-10-31T00:08:49;99216.0;;;19.0;58.06
32452;BME280;45528;52.102;5.242;2023-10-31T00:10:25;99223.0;;;18.98;57.96
32452;BME280;45528;52.102;5.242;2023-10-31T00:12:02;99227.0;;;18.82;58.44
32452;BME280;45528;52.102;5.242;2023-10-31T00:15:14;99234.0;;;18.75;58.66
32452;BME280;45528;52.102;5.242;2023-10-31T00:16:50;99228.0;;;18.75;58.64
32452;BME280;45528;52.102;5.242;2023-10-31T00:18:26;99238.0;;;18.87;58.46
32452;BME280;45528;52.102;5.242;2023-10-31T00:21:39;99235.0;;;18.84;58.55
32452;BME280;45528;52.102;5.242;2023-10-31T00:23:15;99237.0;;;18.73;58.76
32452;BME280;45528;52.102;5.242;2023-10-31T00:24:52;99231.0;;;18.68;59.12
32452;BME280;45528;52.102;5.242;2023-10-31T00:28:04;99233.0;;;18.91;58.58
32452;BME280;45528;52.102;5.242;2023-10-31T00:29:40;99223.0;;;18.86;58.44
32452;BME280;45528;52.102;5.242;2023-10-31T00:31:16;99227.0;;;18.81;58.5
32452;BME280;45528;52.102;5.242;2023-10-31T00:32:52;99225.0;;;18.78;58.63
32452;BME280;45528;52.102;5.242;2023-10-31T00:36:05;99230.0;;;18.77;58.7
32452;BME280;45528;52.102;5.242;2023-10-31T00:37:40;99232.0;;;18.75;58.88
32452;BME280;45528;52.102;5.242;2023-10-31T00:39:16;99233.0;;;18.73;59.04
32452;BME280;45528;52.102;5.242;2023-10-31T00:42:29;99232.0;;;18.7;58.86
32452;BME280;45528;52.102;5.242;2023-10-31T00:44:05;99233.0;;;18.86;58.68
32452;BME280;45528;52.102;5.242;2023-10-31T00:45:41;99238.0;;;18.93;58.62
32452;BME280;45528;52.102;5.242;2023-10-31T00:48:53;99244.0;;;18.93;58.63
32452;BME280;45528;52.102;5.242;2023-10-31T00:50:29;99248.0;;;18.87;58.68
32452;BME280;45528;52.102;5.242;2023-10-31T00:52:05;99244.0;;;18.88;58.77
32452;BME280;45528;52.102;5.242;2023-10-31T00:55:18;99247.0;;;18.91;58.72
32452;BME280;45528;52.102;5.242;2023-10-31T00:56:54;99246.0;;;18.88;58.84
32452;BME280;45528;52.102;5.242;2023-10-31T00:58:30;99252.0;;;18.77;59.13
32452;BME280;45528;52.102;5.242;2023-10-31T01:00:07;99258.0;;;18.95;58.81
32452;BME280;45528;52.102;5.242;2023-10-31T01:03:20;99263.0;;;19.0;58.61
32452;BME280;45528;52.102;5.242;2023-10-31T01:04:56;99259.0;;;18.89;58.83
32452;BME280;45528;52.102;5.242;2023-10-31T01:06:32;99255.0;;;18.84;59.03
32452;BME280;45528;52.102;5.242;2023-10-31T01:09:44;99265.0;;;18.93;58.93
32452;BME280;45528;52.102;5.242;2023-10-31T01:11:20;99263.0;;;18.95;58.91
32452;BME280;45528;52.102;5.242;2023-10-31T01:12:57;99261.0;;;18.98;58.61
32452;BME280;45528;52.102;5.242;2023-10-31T01:16:09;99262.0;;;19.02;58.7
32452;BME280;45528;52.102;5.242;2023-10-31T01:17:45;99264.0;;;18.96;58.79
32452;BME280;45528;52.102;5.242;2023-10-31T01:19:21;99270.0;;;19.0;58.63
32452;BME280;45528;52.102;5.242;2023-10-31T01:20:57;99267.0;;;19.02;58.72
32452;BME280;45528;52.102;5.242;2023-10-31T01:24:09;99269.0;;;19.05;58.46
32452;BME280;45528;52.102;5.242;2023-10-31T01:25:45;99270.0;;;19.0;58.64
32452;BME280;45528;52.102;5.242;2023-10-31T01:27:21;99272.0;;;19.0;58.69
32452;BME280;45528;52.102;5.242;2023-10-31T01:30:34;99268.0;;;19.16;58.03
32452;BME280;45528;52.102;5.242;2023-10-31T01:32:10;99272.0;;;19.04;58.31
32452;BME280;45528;52.102;5.242;2023-10-31T01:33:46;99269.0;;;19.04;58.28
32452;BME280;45528;52.102;5.242;2023-10-31T01:36:58;99277.0;;;19.07;58.28
32452;BME280;45528;52.102;5.242;2023-10-31T01:38:34;99274.0;;;19.06;58.28
32452;BME280;45528;52.102;5.242;2023-10-31T01:40:12;99282.0;;;19.02;58.23
32452;BME280;45528;52.102;5.242;2023-10-31T01:43:29;99280.0;;;19.11;58.29
32452;BME280;45528;52.102;5.242;2023-10-31T01:45:06;99280.0;;;19.09;58.28
32452;BME280;45528;52.102;5.242;2023-10-31T01:46:43;99277.0;;;19.04;58.4
32452;BME280;45528;52.102;5.242;2023-10-31T01:48:19;99280.0;;;19.05;58.44
32452;BME280;45528;52.102;5.242;2023-10-31T01:51:31;99285.0;;;19.0;58.64
32452;BME280;45528;52.102;5.242;2023-10-31T01:53:07;99286.0;;;19.0;58.66
32452;BME280;45528;52.102;5.242;2023-10-31T01:54:43;99284.0;;;18.95;58.75
32452;BME280;45528;52.102;5.242;2023-10-31T01:57:58;99284.0;;;18.93;58.88
32452;BME280;45528;52.102;5.242;2023-10-31T01:59:34;99284.0;;;18.91;59.12
32452;BME280;45528;52.102;5.242;2023-10-31T02:01:10;99289.0;;;18.98;58.84
32452;BME280;45528;52.102;5.242;2023-10-31T02:04:24;99280.0;;;18.89;59.11
32452;BME280;45528;52.102;5.242;2023-10-31T02:06:00;99278.0;;;18.77;59.42
32452;BME280;45528;52.102;5.242;2023-10-31T02:07:36;99281.0;;;19.03;58.8
32452;BME280;45528;52.102;5.242;2023-10-31T02:09:12;99272.0;;;19.03;58.7
32452;BME280;45528;52.102;5.242;2023-10-31T02:12:32;99284.0;;;19.22;58.31
32452;BME280;45528;52.102;5.242;2023-10-31T02:14:08;99288.0;;;19.18;58.37
32452;BME280;45528;52.102;5.242;2023-10-31T02:15:45;99285.0;;;19.04;58.76
32452;BME280;45528;52.102;5.242;2023-10-31T02:18:57;99285.0;;;18.89;59.28
32452;BME280;45528;52.102;5.242;2023-10-31T02:20:34;99289.0;;;18.98;59.13
32452;BME280;45528;52.102;5.242;2023-10-31T02:22:11;99287.0;;;19.02;58.93
32452;BME280;45528;52.102;5.242;2023-10-31T02:23:56;99292.0;;;18.96;59.18
32452;BME280;45528;52.102;5.242;2023-10-31T02:27:09;99291.0;;;19.04;58.95
32452;BME280;45528;52.102;5.242;2023-10-31T02:28:45;99292.0;;;19.04;58.83
32452;BME280;45528;52.102;5.242;2023-10-31T02:30:21;99300.0;;;19.02;59.14
32452;BME280;45528;52.102;5.242;2023-10-31T02:33:33;99303.0;;;19.12;58.63
32452;BME280;45528;52.102;5.242;2023-10-31T02:35:10;99305.0;;;19.09;58.8
32452;BME280;45528;52.102;5.242;2023-10-31T02:36:45;99298.0;;;19.11;58.74
32452;BME280;45528;52.102;5.242;2023-10-31T02:38:22;99305.0;;;19.03;59.01
32452;BME280;45528;52.102;5.242;2023-10-31T02:41:34;99306.0;;;19.05;58.94
32452;BME280;45528;52.102;5.242;2023-10-31T02:43:10;99300.0;;;18.87;59.39
32452;BME280;45528;52.102;5.242;2023-10-31T02:44:46;99311.0;;;18.98;59.24
32452;BME280;45528;52.102;5.242;2023-10-31T02:47:58;99306.0;;;18.81;59.48
32452;BME280;45528;52.102;5.242;2023-10-31T02:49:34;99319.0;;;18.97;59.36
32452;BME280;45528;52.102;5.242;2023-10-31T02:51:10;99317.0;;;18.86;59.48
32452;BME280;45528;52.102;5.242;2023-10-31T02:54:23;99316.0;;;19.09;58.95
32452;BME280;45528;52.102;5.242;2023-10-31T02:55:59;99320.0;;;19.06;59.08
32452;BME280;45528;52.102;5.242;2023-10-31T02:57:35;99315.0;;;19.06;59.04
32452;BME280;45528;52.102;5.242;2023-10-31T03:00:47;99326.0;;;19.11;58.98
32452;BME280;45528;52.102;5.242;2023-10-31T03:02:23;99327.0;;;19.11;58.93
32452;BME280;45528;52.102;5.242;2023-10-31T03:03:59;99328.0;;;18.75;59.92
32452;BME280;45528;52.102;5.242;2023-10-31T03:05:35;99321.0;;;18.98;59.29
32452;BME280;45528;52.102;5.242;2023-10-31T03:08:47;99334.0;;;19.0;59.2
32452;BME280;45528;52.102;5.242;2023-10-31T03:10:23;99335.0;;;19.13;58.89
32452;BME280;45528;52.102;5.242;2023-10-31T03:11:59;99337.0;;;19.02;58.89
32452;BME280;45528;52.102;5.242;2023-10-31T03:15:12;99342.0;;;19.06;58.94
32452;BME280;45528;52.102;5.242;2023-10-31T03:16:48;99349.0;;;18.8;59.45
32452;BME280;45528;52.102;5.242;2023-10-31T03:18:24;99355.0;;;19.02;58.99
32452;BME280;45528;52.102;5.242;2023-10-31T03:21:36;99353.0;;;19.03;58.75
32452;BME280;45528;52.102;5.242;2023-10-31T03:23:12;99355.0;;;18.97;59.08
32452;BME280;45528;52.102;5.242;2023-10-31T03:24:48;99357.0;;;18.93;59.2
32452;BME280;45528;52.102;5.242;2023-10-31T03:28:01;99366.0;;;18.77;59.57
32452;BME280;45528;52.102;5.242;2023-10-31T03:29:37;99356.0;;;18.89;59.02
32452;BME280;45528;52.102;5.242;2023-10-31T03:31:14;99373.0;;;18.87;59.02
32452;BME280;45528;52.102;5.242;2023-10-31T03:32:51;99378.0;;;19.02;58.84
32452;BME280;45528;52.102;5.242;2023-10-31T03:36:04;99381.0;;;19.05;58.65
32452;BME280;45528;52.102;5.242;2023-10-31T03:37:40;99381.0;;;19.0;58.77
32452;BME280;45528;52.102;5.242;2023-10-31T03:39:16;99378.0;;;18.93;58.84
32452;BME280;45528;52.102;5.242;2023-10-31T03:42:29;99385.0;;;19.03;58.67
32452;BME280;45528;52.102;5.242;2023-10-31T03:44:05;99388.0;;;19.04;58.67
32452;BME280;45528;52.102;5.242;2023-10-31T03:45:41;99394.0;;;19.02;58.66
32452;BME280;45528;52.102;5.242;2023-10-31T03:48:54;99394.0;;;19.05;58.57
32452;BME280;45528;52.102;5.242;2023-10-31T03:50:30;99393.0;;;19.02;58.69
32452;BME280;45528;52.102;5.242;2023-10-31T03:52:06;99402.0;;;19.0;58.78
32452;BME280;45528;52.102;5.242;2023-10-31T03:53:42;99402.0;;;19.0;58.77
32452;BME280;45528;52.102;5.242;2023-10-31T03:56:54;99405.0;;;19.02;58.64
32452;BME280;45528;52.102;5.242;2023-10-31T03:58:30;99406.0;;;19.05;58.56
32452;BME280;45528;52.102;5.242;2023-10-31T04:00:07;99411.0;;;19.03;58.68
32452;BME280;45528;52.102;5.242;2023-10-31T04:03:20;99415.0;;;19.03;58.62
32452;BME280;45528;52.102;5.242;2023-10-31T04:04:56;99414.0;;;19.0;58.63
32452;BME280;45528;52.102;5.242;2023-10-31T04:06:32;99399.0;;;18.81;58.91
32452;BME280;45528;52.102;5.242;2023-10-31T04:09:44;99414.0;;;18.89;58.8
32452;BME280;45528;52.102;5.242;2023-10-31T04:11:20;99414.0;;;18.95;58.71
32452;BME280;45528;52.102;5.242;2023-10-31T04:12:56;99420.0;;;19.0;58.63
32452;BME280;45528;52.102;5.242;2023-10-31T04:16:10;99416.0;;;19.0;58.48
32452;BME280;45528;52.102;5.242;2023-10-31T04:17:47;99421.0;;;18.93;58.56
32452;BME280;45528;52.102;5.242;2023-10-31T04:19:23;99420.0;;;18.82;58.88
32452;BME280;45528;52.102;5.242;2023-10-31T04:21:00;99425.0;;;18.82;58.86
32452;BME280;45528;52.102;5.242;2023-10-31T04:24:12;99428.0;;;18.79;58.88
32452;BME280;45528;52.102;5.242;2023-10-31T04:25:48;99428.0;;;18.78;58.61
32452;BME280;45528;52.102;5.242;2023-10-31T04:27:24;99431.0;;;18.81;58.86
32452;BME280;45528;52.102;5.242;2023-10-31T04:30:36;99430.0;;;18.84;58.61
32452;BME280;45528;52.102;5.242;2023-10-31T04:32:13;99434.0;;;18.78;58.72
32452;BME280;45528;52.102;5.242;2023-10-31T04:33:48;99436.0;;;18.7;59.08
32452;BME280;45528;52.102;5.242;2023-10-31T04:37:01;99438.0;;;18.7;58.81
32452;BME280;45528;52.102;5.242;2023-10-31T04:38:37;99438.0;;;18.77;58.7
32452;BME280;45528;52.102;5.242;2023-10-31T04:40:13;99442.0;;;18.86;58.43
32452;BME280;45528;52.102;5.242;2023-10-31T04:41:49;99441.0;;;18.72;58.85
32452;BME280;45528;52.102;5.242;2023-10-31T04:45:01;99438.0;;;18.73;58.78
32452;BME280;45528;52.102;5.242;2023-10-31T04:46:37;99442.0;;;18.78;58.49
32452;BME280;45528;52.102;5.242;2023-10-31T04:48:13;99439.0;;;18.66;58.86
32452;BME280;45528;52.102;5.242;2023-10-31T04:51:26;99436.0;;;18.7;58.71
32452;BME280;45528;52.102;5.242;2023-10-31T04:53:02;99438.0;;;18.61;58.83
32452;BME280;45528;52.102;5.242;2023-10-31T04:54:38;99438.0;;;18.61;58.98
32452;BME280;45528;52.102;5.242;2023-10-31T04:57:52;99438.0;;;18.61;58.82
32452;BME280;45528;52.102;5.242;2023-10-31T04:59:28;99440.0;;;18.59;58.88
32452;BME280;45528;52.102;5.242;2023-10-31T05:01:07;99441.0;;;18.53;58.92
32452;BME280;45528;52.102;5.242;2023-10-31T05:02:44;99451.0;;;18.57;58.88
32452;BME280;45528;52.102;5.242;2023-10-31T05:05:56;99465.0;;;18.56;58.8
32452;BME280;45528;52.102;5.242;2023-10-31T05:07:32;99461.0;;;18.64;58.75
32452;BME280;45528;52.102;5.242;2023-10-31T05:09:09;99462.0;;;18.48;59.1
32452;BME280;45528;52.102;5.242;2023-10-31T05:12:21;99461.0;;;18.45;59.17
32452;BME280;45528;52.102;5.242;2023-10-31T05:13:57;99467.0;;;18.38;59.41
32452;BME280;45528;52.102;5.242;2023-10-31T05:15:33;99472.0;;;18.53;58.82
32452;BME280;45528;52.102;5.242;2023-10-31T05:18:45;99474.0;;;18.59;58.73
32452;BME280;45528;52.102;5.242;2023-10-31T05:20:21;99473.0;;;18.59;58.65
32452;BME280;45528;52.102;5.242;2023-10-31T05:21:57;99472.0;;;18.66;58.46
32452;BME280;45528;52.102;5.242;2023-10-31T05:25:10;99474.0;;;18.62;58.51
32452;BME280;45528;52.102;5.242;2023-10-31T05:26:46;99482.0;;;18.57;58.63
32452;BME280;45528;52.102;5.242;2023-10-31T05:28:22;99481.0;;;18.53;58.7
32452;BME280;45528;52.102;5.242;2023-10-31T05:29:58;99482.0;;;18.55;58.77
32452;BME280;45528;52.102;5.242;2023-10-31T05:33:11;99481.0;;;18.56;58.76
32452;BME280;45528;52.102;5.242;2023-10-31T05:34:47;99489.0;;;18.52;58.92
32452;BME280;45528;52.102;5.242;2023-10-31T05:36:24;99491.0;;;18.5;58.98
32452;BME280;45528;52.102;5.242;2023-10-31T05:39:37;99501.0;;;18.52;58.98
32452;BME280;45528;52.102;5.242;2023-10-31T05:41:13;99501.0;;;18.56;58.63
32452;BME280;45528;52.102;5.242;2023-10-31T05:42:49;99508.0;;;18.59;58.76
32452;BME280;45528;52.102;5.242;2023-10-31T05:46:02;99509.0;;;18.59;58.78
32452;BME280;45528;52.102;5.242;2023-10-31T05:47:38;99512.0;;;18.56;58.62
32452;BME280;45528;52.102;5.242;2023-10-31T05:49:14;99512.0;;;18.54;58.68
32452;BME280;45528;52.102;5.242;2023-10-31T05:52:27;99509.0;;;18.57;58.56
32452;BME280;45528;52.102;5.242;2023-10-31T05:54:04;99513.0;;;18.66;58.39
32452;BME280;45528;52.102;5.242;2023-10-31T05:55:42;99513.0;;;18.48;58.58
32452;BME280;45528;52.102;5.242;2023-10-31T05:57:18;99510.0;;;18.45;58.76
32452;BME280;45528;52.102;5.242;2023-10-31T06:00:31;99511.0;;;18.64;58.34
32452;BME280;45528;52.102;5.242;2023-10-31T06:02:07;99516.0;;;18.52;58.51
32452;BME280;45528;52.102;5.242;2023-10-31T06:03:43;99516.0;;;18.48;58.6
32452;BME280;45528;52.102;5.242;2023-10-31T06:06:55;99527.0;;;18.5;58.72
32452;BME280;45528;52.102;5.242;2023-10-31T06:08:31;99523.0;;;18.55;58.6
32452;BME280;45528;52.102;5.242;2023-10-31T06:10:07;99525.0;;;18.53;58.63
32452;BME280;45528;52.102;5.242;2023-10-31T06:13:19;99525.0;;;18.59;58.56
32452;BME280;45528;52.102;5.242;2023-10-31T06:14:55;99532.0;;;18.54;58.59
32452;BME280;45528;52.102;5.242;2023-10-31T06:16:32;99527.0;;;18.59;58.58
32452;BME280;45528;52.102;5.242;2023-10-31T06:18:08;99539.0;;;18.43;58.89
32452;BME280;45528;52.102;5.242;2023-10-31T06:21:20;99532.0;;;18.52;58.58
32452;BME280;45528;52.102;5.242;2023-10-31T06:22:56;99528.0;;;18.63;58.44
32452;BME280;45528;52.102;5.242;2023-10-31T06:24:32;99539.0;;;18.57;58.37
32452;BME280;45528;52.102;5.242;2023-10-31T06:27:44;99536.0;;;18.64;58.23
32452;BME280;45528;52.102;5.242;2023-10-31T06:29:20;99532.0;;;18.62;58.13
32452;BME280;45528;52.102;5.242;2023-10-31T06:30:57;99541.0;;;18.66;58.03
32452;BME280;45528;52.102;5.242;2023-10-31T06:34:09;99539.0;;;18.7;58.03
32452;BME280;45528;52.102;5.242;2023-10-31T06:35:45;99542.0;;;18.56;58.29
32452;BME280;45528;52.102;5.242;2023-10-31T06:37:21;99557.0;;;18.57;58.4
32452;BME280;45528;52.102;5.242;2023-10-31T06:40:33;99557.0;;;18.61;58.27
32452;BME280;45528;52.102;5.242;2023-10-31T06:42:09;99557.0;;;18.52;58.3
32452;BME280;45528;52.102;5.242;2023-10-31T06:43:45;99564.0;;;18.52;58.17
32452;BME280;45528;52.102;5.242;2023-10-31T06:45:21;99567.0;;;18.5;58.16
32452;BME280;45528;52.102;5.242;2023-10-31T06:48:34;99566.0;;;18.45;58.45
32452;BME280;45528;52.102;5.242;2023-10-31T06:50:10;99574.0;;;18.46;58.46
32452;BME280;45528;52.102;5.242;2023-10-31T06:51:46;99574.0;;;18.41;58.45
32452;BME280;45528;52.102;5.242;2023-10-31T06:54:58;99571.0;;;18.37;58.73
32452;BME280;45528;52.102;5.242;2023-10-31T06:56:34;99580.0;;;18.43;58.44
32452;BME280;45528;52.102;5.242;2023-10-31T06:58:10;99578.0;;;18.48;58.45
32452;BME280;45528;52.102;5.242;2023-10-31T07:01:22;99575.0;;;18.48;58.4
32452;BME280;45528;52.102;5.242;2023-10-31T07:02:59;99580.0;;;18.46;58.41
32452;BME280;45528;52.102;5.242;2023-10-31T07:04:35;99583.0;;;18.57;58.27
32452;BME280;45528;52.102;5.242;2023-10-31T07:06:12;99584.0;;;18.5;58.57
32452;BME280;45528;52.102;5.242;2023-10-31T07:09:25;99587.0;;;18.54;58.43
32452;BME280;45528;52.102;5.242;2023-10-31T07:11:01;99593.0;;;18.45;58.65
32452;BME280;45528;52.102;5.242;2023-10-31T07:12:38;99600.0;;;18.41;58.76
32452;BME280;45528;52.102;5.242;2023-10-31T07:15:50;99599.0;;;18.5;58.97
32452;BME280;45528;52.102;5.242;2023-10-31T07:17:26;99597.0;;;18.66;58.47
32452;BME280;45528;52.102;5.242;2023-10-31T07:19:02;99597.0;;;18.61;58.7
32452;BME280;45528;52.102;5.242;2023-10-31T07:22:15;99595.0;;;18.56;58.91
32452;BME280;45528;52.102;5.242;2023-10-31T07:23:51;99602.0;;;18.61;58.9
32452;BME280;45528;52.102;5.242;2023-10-31T07:25:27;99607.0;;;18.81;58.68
32452;BME280;45528;52.102;5.242;2023-10-31T07:28:40;99606.0;;;18.91;58.45
32452;BME280;45528;52.102;5.242;2023-10-31T07:30:16;99606.0;;;18.97;58.32
32452;BME280;45528;52.102;5.242;2023-10-31T07:31:52;99605.0;;;18.89;58.78
32452;BME280;45528;52.102;5.242;2023-10-31T07:33:28;99616.0;;;18.56;59.4
32452;BME280;45528;52.102;5.242;2023-10-31T07:36:41;99622.0;;;18.96;58.58
32452;BME280;45528;52.102;5.242;2023-10-31T07:38:17;99623.0;;;18.72;59.16
32452;BME280;45528;52.102;5.242;2023-10-31T07:39:53;99618.0;;;19.14;58.16
32452;BME280;45528;52.102;5.242;2023-10-31T07:43:06;99623.0;;;19.13;58.3
32452;BME280;45528;52.102;5.242;2023-10-31T07:44:42;99627.0;;;18.97;58.67
32452;BME280;45528;52.102;5.242;2023-10-31T07:46:18;99628.0;;;18.91;58.6
32452;BME280;45528;52.102;5.242;2023-10-31T07:49:30;99636.0;;;19.04;58.46
32452;BME280;45528;52.102;5.242;2023-10-31T07:51:06;99645.0;;;18.91;58.96
32452;BME280;45528;52.102;5.242;2023-10-31T07:52:42;99644.0;;;19.05;58.35
32452;BME280;45528;52.102;5.242;2023-10-31T07:54:18;99634.0;;;19.02;58.5
32452;BME280;45528;52.102;5.242;2023-10-31T07:57:31;99638.0;;;19.04;58.46
32452;BME280;45528;52.102;5.242;2023-10-31T07:59:07;99638.0;;;19.12;58.23
32452;BME280;45528;52.102;5.242;2023-10-31T08:00:43;99639.0;;;19.06;58.49
32452;BME280;45528;52.102;5.242;2023-10-31T08:03:55;99641.0;;;18.91;58.99
32452;BME280;45528;52.102;5.242;2023-10-31T08:05:31;99631.0;;;19.11;58.55
32452;BME280;45528;52.102;5.242;2023-10-31T08:07:07;99626.0;;;19.14;58.5
32452;BME280;45528;52.102;5.242;2023-10-31T08:10:19;99637.0;;;19.16;58.92
32452;BME280;45528;52.102;5.242;2023-10-31T08:11:55;99635.0;;;19.27;58.64
32452;BME280;45528;52.102;5.242;2023-10-31T08:13:32;99641.0;;;19.43;58.41
32452;BME280;45528;52.102;5.242;2023-10-31T08:16:46;99641.0;;;19.46;58.41
32452;BME280;45528;52.102;5.242;2023-10-31T08:18:23;99641.0;;;19.47;58.41
32452;BME280;45528;52.102;5.242;2023-10-31T08:19:59;99643.0;;;19.45;58.48
32452;BME280;45528;52.102;5.242;2023-10-31T08:21:35;99645.0;;;19.59;58.26
32452;BME280;45528;52.102;5.242;2023-10-31T08:24:48;99645.0;;;19.56;58.26
32452;BME280;45528;52.102;5.242;2023-10-31T08:26:24;99647.0;;;19.47;58.3
32452;BME280;45528;52.102;5.242;2023-10-31T08:28:00;99644.0;;;19.39;58.44
32452;BME280;45528;52.102;5.242;2023-10-31T08:31:13;99647.0;;;19.45;58.58
32452;BME280;45528;52.102;5.242;2023-10-31T08:32:49;99648.0;;;19.45;58.39
32452;BME280;45528;52.102;5.242;2023-10-31T08:34:25;99643.0;;;19.41;58.66
32452;BME280;45528;52.102;5.242;2023-10-31T08:37:39;99649.0;;;19.47;58.66
32452;BME280;45528;52.102;5.242;2023-10-31T08:39:15;99649.0;;;19.46;59.1
32452;BME280;45528;52.102;5.242;2023-10-31T08:40:51;99652.0;;;19.59;59.11
32452;BME280;45528;52.102;5.242;2023-10-31T08:42:27;99655.0;;;19.61;59.24
32452;BME280;45528;52.102;5.242;2023-10-31T08:45:39;99658.0;;;19.56;59.5
32452;BME280;45528;52.102;5.242;2023-10-31T08:47:16;99653.0;;;19.78;58.91
32452;BME280;45528;52.102;5.242;2023-10-31T08:48:52;99653.0;;;19.91;58.98
32452;BME280;45528;52.102;5.242;2023-10-31T08:52:04;99652.0;;;20.0;59.06
32452;BME280;45528;52.102;5.242;2023-10-31T08:53:40;99661.0;;;20.06;58.91
32452;BME280;45528;52.102;5.242;2023-10-31T08:55:16;99671.0;;;20.27;58.51
32452;BME280;45528;52.102;5.242;2023-10-31T08:58:28;99676.0;;;20.29;58.34
32452;BME280;45528;52.102;5.242;2023-10-31T09:00:06;99685.0;;;20.38;57.8
32452;BME280;45528;52.102;5.242;2023-10-31T09:01:42;99690.0;;;20.36;57.73
32452;BME280;45528;52.102;5.242;2023-10-31T09:04:55;99686.0;;;20.36;57.93
32452;BME280;45528;52.102;5.242;2023-10-31T09:06:31;99691.0;;;20.45;58.19
32452;BME280;45528;52.102;5.242;2023-10-31T09:08:07;99701.0;;;20.52;57.94
32452;BME280;45528;52.102;5.242;2023-10-31T09:09:43;99699.0;;;20.52;57.94
32452;BME280;45528;52.102;5.242;2023-10-31T09:12:55;99700.0;;;20.64;57.55
32452;BME280;45528;52.102;5.242;2023-10-31T09:14:31;99706.0;;;20.65;57.43
32452;BME280;45528;52.102;5.242;2023-10-31T09:16:08;99711.0;;;20.75;56.97
32452;BME280;45528;52.102;5.242;2023-10-31T09:19:20;99712.0;;;20.67;57.19
32452;BME280;45528;52.102;5.242;2023-10-31T09:20:57;99713.0;;;20.72;57.36
32452;BME280;45528;52.102;5.242;2023-10-31T09:22:33;99717.0;;;20.81;57.56
32452;BME280;45528;52.102;5.242;2023-10-31T09:25:46;99717.0;;;20.7;57.85
32452;BME280;45528;52.102;5.242;2023-10-31T09:27:22;99719.0;;;20.9;57.45
32452;BME280;45528;52.102;5.242;2023-10-31T09:28:58;99720.0;;;21.07;56.89
32452;BME280;45528;52.102;5.242;2023-10-31T09:30:34;99723.0;;;21.18;56.58
32452;BME280;45528;52.102;5.242;2023-10-31T09:33:46;99730.0;;;21.28;56.83
32452;BME280;45528;52.102;5.242;2023-10-31T09:35:22;99730.0;;;21.09;56.68
32452;BME280;45528;52.102;5.242;2023-10-31T09:36:58;99730.0;;;21.17;56.29
32452;BME280;45528;52.102;5.242;2023-10-31T09:40:11;99734.0;;;21.23;56.26
32452;BME280;45528;52.102;5.242;2023-10-31T09:41:47;99735.0;;;21.19;56.82
32452;BME280;45528;52.102;5.242;2023-10-31T09:43:23;99734.0;;;21.22;56.96
32452;BME280;45528;52.102;5.242;2023-10-31T09:46:35;99737.0;;;21.41;56.6
32452;BME280;45528;52.102;5.242;2023-10-31T09:48:12;99736.0;;;21.49;56.23
32452;BME280;45528;52.102;5.242;2023-10-31T09:49:50;99744.0;;;21.43;56.59
32452;BME280;45528;52.102;5.242;2023-10-31T09:51:27;99742.0;;;21.64;56.29
32452;BME280;45528;52.102;5.242;2023-10-31T09:54:42;99742.0;;;21.77;56.22
32452;BME280;45528;52.102;5.242;2023-10-31T09:56:19;99744.0;;;21.71;56.65
32452;BME280;45528;52.102;5.242;2023-10-31T09:57:55;99746.0;;;21.73;56.18
32452;BME280;45528;52.102;5.242;2023-10-31T10:01:07;99752.0;;;21.74;55.4
32452;BME280;45528;52.102;5.242;2023-10-31T10:02:43;99755.0;;;21.74;56.37
32452;BME280;45528;52.102;5.242;2023-10-31T10:04:19;99747.0;;;21.77;55.85
32452;BME280;45528;52.102;5.242;2023-10-31T10:07:34;99755.0;;;21.83;55.62
32452;BME280;45528;52.102;5.242;2023-10-31T10:09:10;99760.0;;;21.93;55.45
32452;BME280;45528;52.102;5.242;2023-10-31T10:10:47;99769.0;;;21.53;56.19
32452;BME280;45528;52.102;5.242;2023-10-31T10:12:23;99764.0;;;21.83;55.4
32452;BME280;45528;52.102;5.242;2023-10-31T10:15:44;99775.0;;;21.74;55.54
32452;BME280;45528;52.102;5.242;2023-10-31T10:17:21;99778.0;;;21.69;55.75
32452;BME280;45528;52.102;5.242;2023-10-31T10:19:14;99783.0;;;21.79;55.23
32452;BME280;45528;52.102;5.242;2023-10-31T10:20:56;99776.0;;;21.84;55.01
32452;BME280;45528;52.102;5.242;2023-10-31T10:24:08;99776.0;;;21.76;55.25
32452;BME280;45528;52.102;5.242;2023-10-31T10:25:48;99789.0;;;21.88;54.63
32452;BME280;45528;52.102;5.242;2023-10-31T10:27:25;99787.0;;;21.76;55.28
32452;BME280;45528;52.102;5.242;2023-10-31T10:30:38;99793.0;;;21.82;55.35
32452;BME280;45528;52.102;5.242;2023-10-31T10:32:14;99794.0;;;21.84;55.38
32452;BME280;45528;52.102;5.242;2023-10-31T10:33:50;99798.0;;;21.77;55.36
32452;BME280;45528;52.102;5.242;2023-10-31T10:35:26;99796.0;;;21.72;55.97
32452;BME280;45528;52.102;5.242;2023-10-31T10:38:43;99797.0;;;21.73;55.64
32452;BME280;45528;52.102;5.242;2023-10-31T10:40:22;99800.0;;;21.85;55.59
32452;BME280;45528;52.102;5.242;2023-10-31T10:42:00;99805.0;;;21.81;56.06
32452;BME280;45528;52.102;5.242;2023-10-31T10:45:14;99801.0;;;21.8;55.36
32452;BME280;45528;52.102;5.242;2023-10-31T10:46:54;99800.0;;;21.74;55.66
32452;BME280;45528;52.102;5.242;2023-10-31T10:48:32;99801.0;;;21.83;55.79
32452;BME280;45528;52.102;5.242;2023-10-31T10:50:14;99806.0;;;21.8;56.18
32452;BME280;45528;52.102;5.242;2023-10-31T10:53:35;99796.0;;;21.74;56.17
32452;BME280;45528;52.102;5.242;2023-10-31T10:55:20;99801.0;;;22.15;55.57
32452;BME280;45528;52.102;5.242;2023-10-31T10:57:09;99806.0;;;22.1;55.77
32452;BME280;45528;52.102;5.242;2023-10-31T10:58:51;99801.0;;;22.21;55.36
32452;BME280;45528;52.102;5.242;2023-10-31T11:00:31;99805.0;;;21.8;55.46
32452;BME280;45528;52.102;5.242;2023-10-31T11:03:44;99799.0;;;22.2;54.83
32452;BME280;45528;52.102;5.242;2023-10-31T11:05:23;99798.0;;;22.19;54.44
32452;BME280;45528;52.102;5.242;2023-10-31T11:07:00;99807.0;;;22.32;54.46
32452;BME280;45528;52.102;5.242;2023-10-31T11:10:14;99785.0;;;22.03;54.36
32452;BME280;45528;52.102;5.242;2023-10-31T11:11:52;99806.0;;;22.5;53.63
32452;BME280;45528;52.102;5.242;2023-10-31T11:13:29;99809.0;;;22.49;53.99